sensor_id;sensor_type;location;lat;lon;timestamp;P1;durP1;ratioP1;P2;durP2;ratioP2
35971;SDS011;22052;0.000;0.000;2023-03-22T00:01:25;5.85;;;1.40;;
35971;SDS011;22052;0.000;0.000;2023-03-22T00:03:55;8.00;;;1.70;;
35971;SDS011;22052;0.000;0.000;2023-03-22T00:06:21;6.00;;;1.48;;
35971;SDS011;22052;0.000;0.000;2023-03-22T00:08:48;4.07;;;1.40;;
35971;SDS011;22052;0.000;0.000;2023-03-22T00:11:18;5.00;;;1.50;;
35971;SDS011;22052;0.000;0.000;2023-03-22T00:13:44;6.32;;;1.60;;
35971;SDS011;22052;0.000;0.000;2023-03-22T00:16:11;2.05;;;1.10;;
35971;SDS011;22052;0.000;0.000;2023-03-22T00:18:37;6.03;;;1.30;;
35971;SDS011;22052;0.000;0.000;2023-03-22T00:21:04;4.47;;;1.20;;
35971;SDS011;22052;0.000;0.000;2023-03-22T00:23:30;3.15;;;1.00;;
35971;SDS011;22052;0.000;0.000;2023-03-22T00:25:56;3.47;;;1.30;;
35971;SDS011;22052;0.000;0.000;2023-03-22T00:28:23;5.10;;;1.40;;
35971;SDS011;22052;0.000;0.000;2023-03-22T00:30:50;4.15;;;1.17;;
35971;SDS011;22052;0.000;0.000;2023-03-22T00:33:16;4.15;;;1.40;;
35971;SDS011;22052;0.000;0.000;2023-03-22T00:35:52;2.53;;;1.17;;
35971;SDS011;22052;0.000;0.000;2023-03-22T00:38:20;3.13;;;1.00;;
35971;SDS011;22052;0.000;0.000;2023-03-22T00:40:46;5.40;;;1.20;;
35971;SDS011;22052;0.000;0.000;2023-03-22T00:43:13;6.05;;;1.38;;
35971;SDS011;22052;0.000;0.000;2023-03-22T00:45:39;3.40;;;1.40;;
35971;SDS011;22052;0.000;0.000;2023-03-22T00:48:06;4.30;;;1.42;;
35971;SDS011;22052;0.000;0.000;2023-03-22T00:50:33;4.72;;;1.20;;
35971;SDS011;22052;0.000;0.000;2023-03-22T00:52:59;4.57;;;1.20;;
35971;SDS011;22052;0.000;0.000;2023-03-22T00:55:26;3.05;;;1.00;;
35971;SDS011;22052;0.000;0.000;2023-03-22T00:57:52;4.07;;;1.00;;
35971;SDS011;22052;0.000;0.000;2023-03-22T01:00:18;3.05;;;1.00;;
35971;SDS011;22052;0.000;0.000;2023-03-22T01:02:44;4.00;;;1.27;;
35971;SDS011;22052;0.000;0.000;2023-03-22T01:05:11;7.90;;;1.30;;
35971;SDS011;22052;0.000;0.000;2023-03-22T01:07:40;2.78;;;0.95;;
35971;SDS011;22052;0.000;0.000;2023-03-22T01:10:07;3.30;;;1.10;;
35971;SDS011;22052;0.000;0.000;2023-03-22T01:12:34;5.53;;;1.25;;
35971;SDS011;22052;0.000;0.000;2023-03-22T01:15:01;1.73;;;0.90;;
35971;SDS011;22052;0.000;0.000;2023-03-22T01:17:27;3.55;;;1.00;;
35971;SDS011;22052;0.000;0.000;2023-03-22T01:19:53;3.08;;;1.08;;
35971;SDS011;22052;0.000;0.000;2023-03-22T01:22:19;4.25;;;1.20;;
35971;SDS011;22052;0.000;0.000;2023-03-22T01:24:47;1.77;;;1.10;;
35971;SDS011;22052;0.000;0.000;2023-03-22T01:27:13;3.03;;;1.30;;
35971;SDS011;22052;0.000;0.000;2023-03-22T01:29:40;2.97;;;0.90;;
35971;SDS011;22052;0.000;0.000;2023-03-22T01:32:06;2.58;;;1.15;;
35971;SDS011;22052;0.000;0.000;2023-03-22T01:34:32;2.78;;;0.90;;
35971;SDS011;22052;0.000;0.000;2023-03-22T01:36:58;3.47;;;1.30;;
35971;SDS011;22052;0.000;0.000;2023-03-22T01:39:24;3.00;;;1.00;;
35971;SDS011;22052;0.000;0.000;2023-03-22T01:41:51;2.88;;;1.00;;
35971;SDS011;22052;0.000;0.000;2023-03-22T01:44:19;4.53;;;1.27;;
35971;SDS011;22052;0.000;0.000;2023-03-22T01:46:46;3.17;;;1.00;;
35971;SDS011;22052;0.000;0.000;2023-03-22T01:49:26;3.60;;;1.40;;
35971;SDS011;22052;0.000;0.000;2023-03-22T01:51:53;2.67;;;1.00;;
35971;SDS011;22052;0.000;0.000;2023-03-22T01:54:25;3.60;;;1.00;;
35971;SDS011;22052;0.000;0.000;2023-03-22T01:56:53;2.25;;;1.02;;
35971;SDS011;22052;0.000;0.000;2023-03-22T01:59:19;3.60;;;1.15;;
35971;SDS011;22052;0.000;0.000;2023-03-22T02:01:45;2.00;;;0.90;;
35971;SDS011;22052;0.000;0.000;2023-03-22T02:04:16;2.55;;;1.08;;
35971;SDS011;22052;0.000;0.000;2023-03-22T02:06:44;2.40;;;0.90;;
35971;SDS011;22052;0.000;0.000;2023-03-22T02:09:11;3.75;;;1.10;;
35971;SDS011;22052;0.000;0.000;2023-03-22T02:11:41;2.42;;;1.02;;
35971;SDS011;22052;0.000;0.000;2023-03-22T02:30:15;2.22;;;0.88;;
35971;SDS011;22052;0.000;0.000;2023-03-22T02:40:19;2.80;;;0.80;;
35971;SDS011;22052;0.000;0.000;2023-03-22T02:42:57;3.47;;;0.98;;
35971;SDS011;22052;0.000;0.000;2023-03-22T02:47:55;3.17;;;1.10;;
35971;SDS011;22052;0.000;0.000;2023-03-22T02:50:24;2.60;;;0.80;;
35971;SDS011;22052;0.000;0.000;2023-03-22T02:55:45;3.10;;;1.02;;
35971;SDS011;22052;0.000;0.000;2023-03-22T02:58:29;2.13;;;0.80;;
35971;SDS011;22052;0.000;0.000;2023-03-22T03:01:00;3.03;;;1.20;;
35971;SDS011;22052;0.000;0.000;2023-03-22T03:03:27;2.90;;;0.80;;
35971;SDS011;22052;0.000;0.000;2023-03-22T03:05:56;2.17;;;0.80;;
35971;SDS011;22052;0.000;0.000;2023-03-22T03:08:23;1.70;;;0.80;;
35971;SDS011;22052;0.000;0.000;2023-03-22T03:10:50;1.65;;;0.80;;
35971;SDS011;22052;0.000;0.000;2023-03-22T03:13:17;1.48;;;0.80;;
35971;SDS011;22052;0.000;0.000;2023-03-22T03:15:45;1.13;;;0.70;;
35971;SDS011;22052;0.000;0.000;2023-03-22T03:20:48;1.37;;;0.90;;
35971;SDS011;22052;0.000;0.000;2023-03-22T03:24:01;1.10;;;0.70;;
35971;SDS011;22052;0.000;0.000;2023-03-22T03:28:54;1.42;;;0.85;;
35971;SDS011;22052;0.000;0.000;2023-03-22T03:36:45;2.22;;;0.80;;
35971;SDS011;22052;0.000;0.000;2023-03-22T03:39:14;1.50;;;0.70;;
35971;SDS011;22052;0.000;0.000;2023-03-22T03:41:42;2.20;;;0.80;;
35971;SDS011;22052;0.000;0.000;2023-03-22T03:44:08;1.42;;;0.80;;
35971;SDS011;22052;0.000;0.000;2023-03-22T03:46:35;1.63;;;1.02;;
35971;SDS011;22052;0.000;0.000;2023-03-22T03:49:01;1.42;;;0.73;;
35971;SDS011;22052;0.000;0.000;2023-03-22T03:51:29;2.40;;;0.90;;
35971;SDS011;22052;0.000;0.000;2023-03-22T03:53:55;1.83;;;0.90;;
35971;SDS011;22052;0.000;0.000;2023-03-22T03:56:21;1.30;;;0.80;;
35971;SDS011;22052;0.000;0.000;2023-03-22T03:58:47;1.95;;;0.80;;
35971;SDS011;22052;0.000;0.000;2023-03-22T04:01:13;1.67;;;0.70;;
35971;SDS011;22052;0.000;0.000;2023-03-22T04:03:40;1.75;;;0.73;;
35971;SDS011;22052;0.000;0.000;2023-03-22T04:06:06;1.08;;;0.70;;
35971;SDS011;22052;0.000;0.000;2023-03-22T04:08:33;1.80;;;0.90;;
35971;SDS011;22052;0.000;0.000;2023-03-22T04:10:59;1.88;;;0.80;;
35971;SDS011;22052;0.000;0.000;2023-03-22T04:13:25;2.13;;;0.77;;
35971;SDS011;22052;0.000;0.000;2023-03-22T04:15:52;3.35;;;1.00;;
35971;SDS011;22052;0.000;0.000;2023-03-22T04:18:18;1.48;;;0.80;;
35971;SDS011;22052;0.000;0.000;2023-03-22T04:20:45;0.63;;;0.60;;
35971;SDS011;22052;0.000;0.000;2023-03-22T04:23:14;1.48;;;0.80;;
35971;SDS011;22052;0.000;0.000;2023-03-22T04:25:40;1.80;;;0.73;;
35971;SDS011;22052;0.000;0.000;2023-03-22T04:28:07;1.70;;;0.70;;
35971;SDS011;22052;0.000;0.000;2023-03-22T04:30:33;1.35;;;0.60;;
35971;SDS011;22052;0.000;0.000;2023-03-22T04:33:02;1.65;;;0.80;;
35971;SDS011;22052;0.000;0.000;2023-03-22T04:35:32;2.60;;;1.00;;
35971;SDS011;22052;0.000;0.000;2023-03-22T04:37:58;1.77;;;0.70;;
35971;SDS011;22052;0.000;0.000;2023-03-22T04:40:25;1.67;;;1.00;;
35971;SDS011;22052;0.000;0.000;2023-03-22T04:42:52;1.63;;;0.80;;
35971;SDS011;22052;0.000;0.000;2023-03-22T04:45:21;1.45;;;0.80;;
35971;SDS011;22052;0.000;0.000;2023-03-22T04:47:47;2.50;;;0.80;;
35971;SDS011;22052;0.000;0.000;2023-03-22T04:50:14;1.27;;;0.70;;
35971;SDS011;22052;0.000;0.000;2023-03-22T04:52:40;1.10;;;0.70;;
35971;SDS011;22052;0.000;0.000;2023-03-22T04:55:06;1.10;;;0.80;;
35971;SDS011;22052;0.000;0.000;2023-03-22T04:57:32;1.20;;;0.60;;
35971;SDS011;22052;0.000;0.000;2023-03-22T04:59:59;1.67;;;0.85;;
35971;SDS011;22052;0.000;0.000;2023-03-22T05:02:26;1.38;;;0.82;;
35971;SDS011;22052;0.000;0.000;2023-03-22T05:04:52;0.95;;;0.73;;
35971;SDS011;22052;0.000;0.000;2023-03-22T05:07:18;1.50;;;0.82;;
35971;SDS011;22052;0.000;0.000;2023-03-22T05:09:44;3.58;;;0.80;;
35971;SDS011;22052;0.000;0.000;2023-03-22T05:12:10;1.70;;;0.70;;
35971;SDS011;22052;0.000;0.000;2023-03-22T05:14:36;1.73;;;0.70;;
35971;SDS011;22052;0.000;0.000;2023-03-22T05:17:03;0.90;;;0.80;;
35971;SDS011;22052;0.000;0.000;2023-03-22T05:19:29;1.00;;;0.90;;
35971;SDS011;22052;0.000;0.000;2023-03-22T05:21:55;2.08;;;0.85;;
35971;SDS011;22052;0.000;0.000;2023-03-22T05:24:22;1.25;;;0.80;;
35971;SDS011;22052;0.000;0.000;2023-03-22T05:26:48;2.10;;;0.60;;
35971;SDS011;22052;0.000;0.000;2023-03-22T05:29:18;1.10;;;0.80;;
35971;SDS011;22052;0.000;0.000;2023-03-22T05:31:45;2.80;;;0.80;;
35971;SDS011;22052;0.000;0.000;2023-03-22T05:34:11;2.10;;;0.90;;
35971;SDS011;22052;0.000;0.000;2023-03-22T05:36:37;1.90;;;0.77;;
35971;SDS011;22052;0.000;0.000;2023-03-22T05:39:03;3.17;;;0.90;;
35971;SDS011;22052;0.000;0.000;2023-03-22T05:41:30;2.20;;;0.70;;
35971;SDS011;22052;0.000;0.000;2023-03-22T05:43:58;2.92;;;0.80;;
35971;SDS011;22052;0.000;0.000;2023-03-22T05:46:24;1.58;;;0.70;;
35971;SDS011;22052;0.000;0.000;2023-03-22T05:48:50;3.17;;;0.90;;
35971;SDS011;22052;0.000;0.000;2023-03-22T05:51:17;2.25;;;0.90;;
35971;SDS011;22052;0.000;0.000;2023-03-22T05:53:44;2.47;;;0.90;;
35971;SDS011;22052;0.000;0.000;2023-03-22T05:56:10;3.90;;;0.93;;
35971;SDS011;22052;0.000;0.000;2023-03-22T05:58:36;3.80;;;1.13;;
35971;SDS011;22052;0.000;0.000;2023-03-22T06:01:08;6.50;;;1.17;;
35971;SDS011;22052;0.000;0.000;2023-03-22T06:03:35;3.47;;;1.02;;
35971;SDS011;22052;0.000;0.000;2023-03-22T06:06:02;1.17;;;0.75;;
35971;SDS011;22052;0.000;0.000;2023-03-22T06:08:31;1.48;;;0.98;;
35971;SDS011;22052;0.000;0.000;2023-03-22T06:10:57;4.10;;;0.98;;
35971;SDS011;22052;0.000;0.000;2023-03-22T06:13:24;6.57;;;1.00;;
35971;SDS011;22052;0.000;0.000;2023-03-22T06:15:50;3.70;;;0.88;;
35971;SDS011;22052;0.000;0.000;2023-03-22T06:18:16;6.07;;;1.30;;
35971;SDS011;22052;0.000;0.000;2023-03-22T06:20:42;3.75;;;1.00;;
35971;SDS011;22052;0.000;0.000;2023-03-22T06:23:09;3.88;;;1.10;;
35971;SDS011;22052;0.000;0.000;2023-03-22T06:25:35;2.55;;;1.25;;
35971;SDS011;22052;0.000;0.000;2023-03-22T06:28:01;5.50;;;0.90;;
35971;SDS011;22052;0.000;0.000;2023-03-22T06:30:27;5.47;;;1.20;;
35971;SDS011;22052;0.000;0.000;2023-03-22T06:32:54;6.20;;;1.20;;
35971;SDS011;22052;0.000;0.000;2023-03-22T06:35:21;8.32;;;1.20;;
35971;SDS011;22052;0.000;0.000;2023-03-22T06:37:47;6.28;;;1.25;;
35971;SDS011;22052;0.000;0.000;2023-03-22T06:40:13;5.65;;;1.20;;
35971;SDS011;22052;0.000;0.000;2023-03-22T06:42:40;5.78;;;1.30;;
35971;SDS011;22052;0.000;0.000;2023-03-22T06:45:06;4.00;;;1.20;;
35971;SDS011;22052;0.000;0.000;2023-03-22T06:47:32;6.63;;;1.40;;
35971;SDS011;22052;0.000;0.000;2023-03-22T06:49:59;5.45;;;1.20;;
35971;SDS011;22052;0.000;0.000;2023-03-22T06:52:25;5.13;;;1.25;;
35971;SDS011;22052;0.000;0.000;2023-03-22T06:54:51;5.38;;;1.30;;
35971;SDS011;22052;0.000;0.000;2023-03-22T06:57:17;8.18;;;1.30;;
35971;SDS011;22052;0.000;0.000;2023-03-22T06:59:43;7.13;;;1.40;;
35971;SDS011;22052;0.000;0.000;2023-03-22T07:02:10;7.10;;;1.27;;
35971;SDS011;22052;0.000;0.000;2023-03-22T07:04:36;5.80;;;1.00;;
35971;SDS011;22052;0.000;0.000;2023-03-22T07:07:03;4.55;;;1.30;;
35971;SDS011;22052;0.000;0.000;2023-03-22T07:09:29;5.35;;;1.20;;
35971;SDS011;22052;0.000;0.000;2023-03-22T07:11:55;7.40;;;1.10;;
35971;SDS011;22052;0.000;0.000;2023-03-22T07:14:21;3.85;;;1.00;;
35971;SDS011;22052;0.000;0.000;2023-03-22T07:16:47;4.93;;;1.42;;
35971;SDS011;22052;0.000;0.000;2023-03-22T07:19:14;4.65;;;1.10;;
35971;SDS011;22052;0.000;0.000;2023-03-22T07:21:42;4.10;;;0.90;;
35971;SDS011;22052;0.000;0.000;2023-03-22T07:24:08;3.95;;;1.30;;
35971;SDS011;22052;0.000;0.000;2023-03-22T07:26:36;5.63;;;1.30;;
35971;SDS011;22052;0.000;0.000;2023-03-22T07:29:03;4.13;;;0.93;;
35971;SDS011;22052;0.000;0.000;2023-03-22T07:31:29;5.28;;;1.08;;
35971;SDS011;22052;0.000;0.000;2023-03-22T07:33:59;3.92;;;1.10;;
35971;SDS011;22052;0.000;0.000;2023-03-22T07:36:26;3.83;;;1.10;;
35971;SDS011;22052;0.000;0.000;2023-03-22T07:38:52;4.30;;;1.20;;
35971;SDS011;22052;0.000;0.000;2023-03-22T07:41:18;5.47;;;1.30;;
35971;SDS011;22052;0.000;0.000;2023-03-22T07:43:46;5.82;;;1.20;;
35971;SDS011;22052;0.000;0.000;2023-03-22T07:46:12;3.70;;;1.30;;
35971;SDS011;22052;0.000;0.000;2023-03-22T07:48:39;4.15;;;1.10;;
35971;SDS011;22052;0.000;0.000;2023-03-22T07:51:05;7.60;;;1.38;;
35971;SDS011;22052;0.000;0.000;2023-03-22T07:53:32;4.47;;;1.17;;
35971;SDS011;22052;0.000;0.000;2023-03-22T07:55:58;6.80;;;1.00;;
35971;SDS011;22052;0.000;0.000;2023-03-22T07:58:25;3.67;;;1.20;;
35971;SDS011;22052;0.000;0.000;2023-03-22T08:00:51;6.28;;;1.25;;
35971;SDS011;22052;0.000;0.000;2023-03-22T08:03:17;5.68;;;1.40;;
35971;SDS011;22052;0.000;0.000;2023-03-22T08:05:43;6.55;;;1.52;;
35971;SDS011;22052;0.000;0.000;2023-03-22T08:08:10;5.85;;;1.20;;
35971;SDS011;22052;0.000;0.000;2023-03-22T08:10:37;5.07;;;1.10;;
35971;SDS011;22052;0.000;0.000;2023-03-22T08:13:15;5.93;;;1.20;;
35971;SDS011;22052;0.000;0.000;2023-03-22T08:15:44;3.13;;;1.15;;
35971;SDS011;22052;0.000;0.000;2023-03-22T08:18:10;5.38;;;1.27;;
35971;SDS011;22052;0.000;0.000;2023-03-22T08:20:37;2.88;;;1.15;;
35971;SDS011;22052;0.000;0.000;2023-03-22T08:23:03;4.45;;;1.08;;
35971;SDS011;22052;0.000;0.000;2023-03-22T08:25:29;7.43;;;1.48;;
35971;SDS011;22052;0.000;0.000;2023-03-22T08:27:57;5.95;;;1.30;;
35971;SDS011;22052;0.000;0.000;2023-03-22T08:30:24;6.18;;;1.00;;
35971;SDS011;22052;0.000;0.000;2023-03-22T08:32:51;6.07;;;1.23;;
35971;SDS011;22052;0.000;0.000;2023-03-22T08:35:17;4.43;;;1.17;;
35971;SDS011;22052;0.000;0.000;2023-03-22T08:37:44;6.10;;;1.38;;
35971;SDS011;22052;0.000;0.000;2023-03-22T08:40:10;2.65;;;1.02;;
35971;SDS011;22052;0.000;0.000;2023-03-22T08:42:37;4.05;;;1.10;;
35971;SDS011;22052;0.000;0.000;2023-03-22T08:45:03;5.22;;;1.42;;
35971;SDS011;22052;0.000;0.000;2023-03-22T08:47:30;7.97;;;1.40;;
35971;SDS011;22052;0.000;0.000;2023-03-22T08:49:56;4.18;;;1.20;;
35971;SDS011;22052;0.000;0.000;2023-03-22T08:52:22;6.15;;;1.30;;
35971;SDS011;22052;0.000;0.000;2023-03-22T08:54:49;5.47;;;1.15;;
35971;SDS011;22052;0.000;0.000;2023-03-22T08:57:18;4.40;;;1.13;;
35971;SDS011;22052;0.000;0.000;2023-03-22T08:59:47;4.38;;;1.35;;
35971;SDS011;22052;0.000;0.000;2023-03-22T09:02:20;4.25;;;1.30;;
35971;SDS011;22052;0.000;0.000;2023-03-22T09:04:48;5.03;;;1.38;;
35971;SDS011;22052;0.000;0.000;2023-03-22T09:07:14;5.65;;;1.27;;
35971;SDS011;22052;0.000;0.000;2023-03-22T09:09:46;4.80;;;1.25;;
35971;SDS011;22052;0.000;0.000;2023-03-22T09:12:19;7.45;;;1.10;;
35971;SDS011;22052;0.000;0.000;2023-03-22T09:14:55;6.60;;;1.20;;
35971;SDS011;22052;0.000;0.000;2023-03-22T09:17:22;5.38;;;1.33;;
35971;SDS011;22052;0.000;0.000;2023-03-22T09:19:48;4.97;;;1.30;;
35971;SDS011;22052;0.000;0.000;2023-03-22T09:22:15;5.55;;;1.33;;
35971;SDS011;22052;0.000;0.000;2023-03-22T09:24:41;5.60;;;1.02;;
35971;SDS011;22052;0.000;0.000;2023-03-22T09:27:07;4.00;;;1.38;;
35971;SDS011;22052;0.000;0.000;2023-03-22T09:29:34;7.60;;;1.48;;
35971;SDS011;22052;0.000;0.000;2023-03-22T09:32:00;5.65;;;1.30;;
35971;SDS011;22052;0.000;0.000;2023-03-22T09:34:26;8.90;;;1.48;;
35971;SDS011;22052;0.000;0.000;2023-03-22T09:36:53;5.43;;;1.15;;
35971;SDS011;22052;0.000;0.000;2023-03-22T09:39:19;5.43;;;1.20;;
35971;SDS011;22052;0.000;0.000;2023-03-22T09:41:47;3.88;;;1.35;;
35971;SDS011;22052;0.000;0.000;2023-03-22T09:44:20;3.58;;;1.20;;
35971;SDS011;22052;0.000;0.000;2023-03-22T09:46:50;5.80;;;1.20;;
35971;SDS011;22052;0.000;0.000;2023-03-22T09:49:19;4.60;;;1.10;;
35971;SDS011;22052;0.000;0.000;2023-03-22T09:51:49;3.88;;;1.20;;
35971;SDS011;22052;0.000;0.000;2023-03-22T09:54:36;2.63;;;0.90;;
35971;SDS011;22052;0.000;0.000;2023-03-22T10:00:42;5.20;;;1.30;;
35971;SDS011;22052;0.000;0.000;2023-03-22T10:05:43;4.70;;;1.33;;
35971;SDS011;22052;0.000;0.000;2023-03-22T10:08:16;6.10;;;1.30;;
35971;SDS011;22052;0.000;0.000;2023-03-22T10:10:56;7.10;;;1.52;;
35971;SDS011;22052;0.000;0.000;2023-03-22T10:13:29;6.53;;;1.33;;
35971;SDS011;22052;0.000;0.000;2023-03-22T10:15:58;7.65;;;1.40;;
35971;SDS011;22052;0.000;0.000;2023-03-22T10:18:37;6.40;;;1.30;;
35971;SDS011;22052;0.000;0.000;2023-03-22T10:21:04;8.55;;;1.38;;
35971;SDS011;22052;0.000;0.000;2023-03-22T10:23:43;7.10;;;1.55;;
35971;SDS011;22052;0.000;0.000;2023-03-22T10:29:04;8.18;;;1.55;;
35971;SDS011;22052;0.000;0.000;2023-03-22T10:31:37;7.13;;;1.40;;
35971;SDS011;22052;0.000;0.000;2023-03-22T10:34:23;6.05;;;1.13;;
35971;SDS011;22052;0.000;0.000;2023-03-22T10:36:52;5.40;;;1.60;;
35971;SDS011;22052;0.000;0.000;2023-03-22T10:41:54;6.88;;;1.60;;
35971;SDS011;22052;0.000;0.000;2023-03-22T10:44:21;6.10;;;1.52;;
35971;SDS011;22052;0.000;0.000;2023-03-22T10:46:49;9.18;;;1.77;;
35971;SDS011;22052;0.000;0.000;2023-03-22T10:49:38;6.45;;;1.80;;
35971;SDS011;22052;0.000;0.000;2023-03-22T10:52:03;9.15;;;1.35;;
35971;SDS011;22052;0.000;0.000;2023-03-22T10:54:34;7.57;;;1.42;;
35971;SDS011;22052;0.000;0.000;2023-03-22T10:57:01;7.15;;;1.58;;
35971;SDS011;22052;0.000;0.000;2023-03-22T10:59:46;8.85;;;2.08;;
35971;SDS011;22052;0.000;0.000;2023-03-22T11:05:36;4.05;;;1.08;;
35971;SDS011;22052;0.000;0.000;2023-03-22T11:08:05;7.82;;;1.70;;
35971;SDS011;22052;0.000;0.000;2023-03-22T11:10:32;11.18;;;1.77;;
35971;SDS011;22052;0.000;0.000;2023-03-22T11:15:49;11.18;;;1.40;;
35971;SDS011;22052;0.000;0.000;2023-03-22T11:18:17;8.68;;;1.75;;
35971;SDS011;22052;0.000;0.000;2023-03-22T11:23:41;7.15;;;1.77;;
35971;SDS011;22052;0.000;0.000;2023-03-22T11:26:09;6.97;;;1.70;;
35971;SDS011;22052;0.000;0.000;2023-03-22T11:28:44;10.60;;;2.22;;
35971;SDS011;22052;0.000;0.000;2023-03-22T11:31:12;12.23;;;2.28;;
35971;SDS011;22052;0.000;0.000;2023-03-22T11:33:55;9.75;;;1.70;;
35971;SDS011;22052;0.000;0.000;2023-03-22T11:36:21;7.13;;;1.70;;
35971;SDS011;22052;0.000;0.000;2023-03-22T11:38:48;5.05;;;1.55;;
35971;SDS011;22052;0.000;0.000;2023-03-22T11:41:25;6.78;;;1.83;;
35971;SDS011;22052;0.000;0.000;2023-03-22T11:43:53;6.28;;;1.70;;
35971;SDS011;22052;0.000;0.000;2023-03-22T11:46:20;8.35;;;1.50;;
35971;SDS011;22052;0.000;0.000;2023-03-22T11:48:47;8.65;;;1.70;;
35971;SDS011;22052;0.000;0.000;2023-03-22T11:51:23;8.60;;;1.77;;
35971;SDS011;22052;0.000;0.000;2023-03-22T11:53:51;5.43;;;1.48;;
35971;SDS011;22052;0.000;0.000;2023-03-22T11:56:21;6.63;;;1.70;;
35971;SDS011;22052;0.000;0.000;2023-03-22T11:58:55;7.30;;;1.60;;
35971;SDS011;22052;0.000;0.000;2023-03-22T12:03:54;6.45;;;2.00;;
35971;SDS011;22052;0.000;0.000;2023-03-22T12:06:22;4.65;;;1.50;;
35971;SDS011;22052;0.000;0.000;2023-03-22T12:08:59;7.45;;;1.55;;
35971;SDS011;22052;0.000;0.000;2023-03-22T12:11:39;7.60;;;1.38;;
35971;SDS011;22052;0.000;0.000;2023-03-22T12:14:14;10.20;;;2.35;;
35971;SDS011;22052;0.000;0.000;2023-03-22T12:16:57;7.22;;;1.70;;
35971;SDS011;22052;0.000;0.000;2023-03-22T12:19:32;5.55;;;1.30;;
35971;SDS011;22052;0.000;0.000;2023-03-22T12:22:01;6.18;;;1.52;;
35971;SDS011;22052;0.000;0.000;2023-03-22T12:24:29;7.90;;;1.52;;
35971;SDS011;22052;0.000;0.000;2023-03-22T12:26:59;7.07;;;1.60;;
35971;SDS011;22052;0.000;0.000;2023-03-22T12:29:27;8.43;;;2.25;;
35971;SDS011;22052;0.000;0.000;2023-03-22T12:32:01;7.63;;;1.60;;
35971;SDS011;22052;0.000;0.000;2023-03-22T12:34:33;7.88;;;1.42;;
35971;SDS011;22052;0.000;0.000;2023-03-22T12:37:01;5.45;;;1.35;;
35971;SDS011;22052;0.000;0.000;2023-03-22T12:39:32;14.95;;;1.88;;
35971;SDS011;22052;0.000;0.000;2023-03-22T12:42:23;6.82;;;1.35;;
35971;SDS011;22052;0.000;0.000;2023-03-22T12:44:47;10.95;;;1.83;;
35971;SDS011;22052;0.000;0.000;2023-03-22T12:47:25;6.82;;;1.45;;
35971;SDS011;22052;0.000;0.000;2023-03-22T12:50:02;11.23;;;1.75;;
35971;SDS011;22052;0.000;0.000;2023-03-22T12:52:30;11.18;;;1.45;;
35971;SDS011;22052;0.000;0.000;2023-03-22T12:54:59;6.82;;;1.50;;
35971;SDS011;22052;0.000;0.000;2023-03-22T12:57:25;8.38;;;1.75;;
35971;SDS011;22052;0.000;0.000;2023-03-22T12:59:53;5.68;;;1.50;;
35971;SDS011;22052;0.000;0.000;2023-03-22T13:02:30;8.60;;;1.50;;
35971;SDS011;22052;0.000;0.000;2023-03-22T13:04:59;10.95;;;1.63;;
35971;SDS011;22052;0.000;0.000;2023-03-22T13:09:55;6.88;;;1.80;;
35971;SDS011;22052;0.000;0.000;2023-03-22T13:12:24;4.68;;;1.40;;
35971;SDS011;22052;0.000;0.000;2023-03-22T13:22:27;5.38;;;1.48;;
35971;SDS011;22052;0.000;0.000;2023-03-22T13:30:13;5.13;;;1.25;;
35971;SDS011;22052;0.000;0.000;2023-03-22T13:32:50;7.82;;;1.40;;
35971;SDS011;22052;0.000;0.000;2023-03-22T13:35:25;4.97;;;1.23;;
35971;SDS011;22052;0.000;0.000;2023-03-22T13:38:05;6.20;;;1.40;;
35971;SDS011;22052;0.000;0.000;2023-03-22T13:40:36;7.60;;;1.83;;
35971;SDS011;22052;0.000;0.000;2023-03-22T13:43:17;6.78;;;1.33;;
35971;SDS011;22052;0.000;0.000;2023-03-22T13:46:02;7.88;;;2.25;;
35971;SDS011;22052;0.000;0.000;2023-03-22T13:48:52;5.72;;;1.30;;
35971;SDS011;22052;0.000;0.000;2023-03-22T13:56:54;7.75;;;1.17;;
35971;SDS011;22052;0.000;0.000;2023-03-22T14:04:40;7.75;;;1.60;;
35971;SDS011;22052;0.000;0.000;2023-03-22T14:07:18;7.90;;;1.45;;
35971;SDS011;22052;0.000;0.000;2023-03-22T14:09:48;6.93;;;1.40;;
35971;SDS011;22052;0.000;0.000;2023-03-22T14:12:17;4.93;;;1.23;;
35971;SDS011;22052;0.000;0.000;2023-03-22T14:14:45;5.85;;;1.38;;
35971;SDS011;22052;0.000;0.000;2023-03-22T14:17:26;8.27;;;1.65;;
35971;SDS011;22052;0.000;0.000;2023-03-22T14:19:55;8.55;;;1.73;;
35971;SDS011;22052;0.000;0.000;2023-03-22T14:22:31;5.53;;;1.38;;
35971;SDS011;22052;0.000;0.000;2023-03-22T14:24:58;8.13;;;1.98;;
35971;SDS011;22052;0.000;0.000;2023-03-22T14:27:26;7.78;;;1.20;;
35971;SDS011;22052;0.000;0.000;2023-03-22T14:29:52;8.35;;;1.70;;
35971;SDS011;22052;0.000;0.000;2023-03-22T14:32:20;7.93;;;1.40;;
35971;SDS011;22052;0.000;0.000;2023-03-22T14:34:49;6.07;;;1.42;;
35971;SDS011;22052;0.000;0.000;2023-03-22T14:37:16;7.25;;;1.25;;
35971;SDS011;22052;0.000;0.000;2023-03-22T14:39:47;5.05;;;1.45;;
35971;SDS011;22052;0.000;0.000;2023-03-22T14:44:54;5.93;;;1.57;;
35971;SDS011;22052;0.000;0.000;2023-03-22T14:47:22;7.68;;;1.17;;
35971;SDS011;22052;0.000;0.000;2023-03-22T14:49:53;8.95;;;1.70;;
35971;SDS011;22052;0.000;0.000;2023-03-22T14:52:23;9.00;;;1.55;;
35971;SDS011;22052;0.000;0.000;2023-03-22T14:54:54;6.55;;;1.13;;
35971;SDS011;22052;0.000;0.000;2023-03-22T14:57:32;4.35;;;1.25;;
35971;SDS011;22052;0.000;0.000;2023-03-22T15:00:05;9.73;;;1.25;;
35971;SDS011;22052;0.000;0.000;2023-03-22T15:02:41;9.02;;;1.60;;
35971;SDS011;22052;0.000;0.000;2023-03-22T15:05:18;9.45;;;1.80;;
35971;SDS011;22052;0.000;0.000;2023-03-22T15:08:04;12.73;;;1.83;;
35971;SDS011;22052;0.000;0.000;2023-03-22T15:10:32;7.47;;;1.60;;
35971;SDS011;22052;0.000;0.000;2023-03-22T15:12:59;6.97;;;1.40;;
35971;SDS011;22052;0.000;0.000;2023-03-22T15:15:32;5.40;;;1.45;;
35971;SDS011;22052;0.000;0.000;2023-03-22T15:17:59;8.00;;;1.58;;
35971;SDS011;22052;0.000;0.000;2023-03-22T15:20:27;4.10;;;1.27;;
35971;SDS011;22052;0.000;0.000;2023-03-22T15:22:55;7.75;;;1.50;;
35971;SDS011;22052;0.000;0.000;2023-03-22T15:25:29;7.35;;;1.70;;
35971;SDS011;22052;0.000;0.000;2023-03-22T15:27:56;3.85;;;1.15;;
35971;SDS011;22052;0.000;0.000;2023-03-22T15:30:23;5.97;;;1.20;;
35971;SDS011;22052;0.000;0.000;2023-03-22T15:32:49;10.43;;;1.60;;
35971;SDS011;22052;0.000;0.000;2023-03-22T15:35:17;8.40;;;1.70;;
35971;SDS011;22052;0.000;0.000;2023-03-22T15:37:50;9.82;;;1.80;;
35971;SDS011;22052;0.000;0.000;2023-03-22T15:40:38;4.80;;;1.35;;
35971;SDS011;22052;0.000;0.000;2023-03-22T15:46:04;6.22;;;1.38;;
35971;SDS011;22052;0.000;0.000;2023-03-22T15:48:39;9.70;;;1.73;;
35971;SDS011;22052;0.000;0.000;2023-03-22T15:51:05;10.18;;;1.50;;
35971;SDS011;22052;0.000;0.000;2023-03-22T15:53:33;8.45;;;1.60;;
35971;SDS011;22052;0.000;0.000;2023-03-22T15:56:00;7.45;;;1.67;;
35971;SDS011;22052;0.000;0.000;2023-03-22T15:58:30;7.72;;;1.60;;
35971;SDS011;22052;0.000;0.000;2023-03-22T16:01:07;12.35;;;1.60;;
35971;SDS011;22052;0.000;0.000;2023-03-22T16:03:43;7.22;;;1.58;;
35971;SDS011;22052;0.000;0.000;2023-03-22T16:06:11;11.00;;;1.70;;
35971;SDS011;22052;0.000;0.000;2023-03-22T16:08:37;6.38;;;1.50;;
35971;SDS011;22052;0.000;0.000;2023-03-22T16:11:04;7.78;;;1.80;;
35971;SDS011;22052;0.000;0.000;2023-03-22T16:13:30;12.40;;;2.08;;
35971;SDS011;22052;0.000;0.000;2023-03-22T16:15:59;8.52;;;1.80;;
35971;SDS011;22052;0.000;0.000;2023-03-22T16:18:25;8.38;;;1.60;;
35971;SDS011;22052;0.000;0.000;2023-03-22T16:20:52;5.45;;;1.48;;
35971;SDS011;22052;0.000;0.000;2023-03-22T16:23:20;7.20;;;1.80;;
35971;SDS011;22052;0.000;0.000;2023-03-22T16:25:46;6.78;;;1.75;;
35971;SDS011;22052;0.000;0.000;2023-03-22T16:28:12;7.85;;;1.55;;
35971;SDS011;22052;0.000;0.000;2023-03-22T16:30:39;10.30;;;1.52;;
35971;SDS011;22052;0.000;0.000;2023-03-22T16:33:08;9.45;;;1.92;;
35971;SDS011;22052;0.000;0.000;2023-03-22T16:35:35;7.18;;;1.55;;
35971;SDS011;22052;0.000;0.000;2023-03-22T16:38:01;6.63;;;1.63;;
35971;SDS011;22052;0.000;0.000;2023-03-22T16:40:28;5.65;;;1.50;;
35971;SDS011;22052;0.000;0.000;2023-03-22T16:42:55;6.43;;;1.40;;
35971;SDS011;22052;0.000;0.000;2023-03-22T16:45:22;11.18;;;2.15;;